sensor_id;sensor_type;location;lat;lon;timestamp;P1;durP1;ratioP1;P2;durP2;ratioP2
47659;SDS011;33403;43.608;1.458;2023-09-30T00:00:58;10.05;;;4.55;;
47659;SDS011;33403;43.608;1.458;2023-09-30T00:03:24;13.93;;;4.80;;
47659;SDS011;33403;43.608;1.458;2023-09-30T00:05:50;12.13;;;4.47;;
47659;SDS011;33403;43.608;1.458;2023-09-30T00:08:15;10.70;;;4.97;;
47659;SDS011;33403;43.608;1.458;2023-09-30T00:10:41;10.48;;;4.55;;
47659;SDS011;33403;43.608;1.458;2023-09-30T00:13:07;10.15;;;4.90;;
47659;SDS011;33403;43.608;1.458;2023-09-30T00:15:33;11.45;;;4.82;;
47659;SDS011;33403;43.608;1.458;2023-09-30T00:17:59;10.80;;;4.35;;
47659;SDS011;33403;43.608;1.458;2023-09-30T00:20:26;10.50;;;4.32;;
47659;SDS011;33403;43.608;1.458;2023-09-30T00:22:54;12.05;;;4.43;;
47659;SDS011;33403;43.608;1.458;2023-09-30T00:25:20;11.93;;;5.13;;
47659;SDS011;33403;43.608;1.458;2023-09-30T00:27:46;10.27;;;4.60;;
47659;SDS011;33403;43.608;1.458;2023-09-30T00:30:12;11.82;;;4.68;;
47659;SDS011;33403;43.608;1.458;2023-09-30T00:32:38;12.40;;;4.80;;
47659;SDS011;33403;43.608;1.458;2023-09-30T00:35:04;13.85;;;4.88;;
47659;SDS011;33403;43.608;1.458;2023-09-30T00:37:38;11.27;;;4.60;;
47659;SDS011;33403;43.608;1.458;2023-09-30T00:40:05;10.80;;;4.60;;
47659;SDS011;33403;43.608;1.458;2023-09-30T00:42:31;10.93;;;4.30;;
47659;SDS011;33403;43.608;1.458;2023-09-30T00:44:57;9.57;;;4.38;;
47659;SDS011;33403;43.608;1.458;2023-09-30T00:47:22;10.82;;;4.78;;
47659;SDS011;33403;43.608;1.458;2023-09-30T00:49:49;12.77;;;4.85;;
47659;SDS011;33403;43.608;1.458;2023-09-30T00:52:15;11.23;;;4.88;;
47659;SDS011;33403;43.608;1.458;2023-09-30T00:54:43;11.80;;;4.93;;
47659;SDS011;33403;43.608;1.458;2023-09-30T00:57:09;12.77;;;4.47;;
47659;SDS011;33403;43.608;1.458;2023-09-30T00:59:36;12.13;;;4.78;;
47659;SDS011;33403;43.608;1.458;2023-09-30T01:02:03;11.45;;;4.47;;
47659;SDS011;33403;43.608;1.458;2023-09-30T01:04:31;11.15;;;4.30;;
47659;SDS011;33403;43.608;1.458;2023-09-30T01:06:57;12.55;;;5.15;;
47659;SDS011;33403;43.608;1.458;2023-09-30T01:09:23;12.43;;;5.13;;
47659;SDS011;33403;43.608;1.458;2023-09-30T01:11:49;10.85;;;4.40;;
47659;SDS011;33403;43.608;1.458;2023-09-30T01:14:25;10.20;;;4.65;;
47659;SDS011;33403;43.608;1.458;2023-09-30T01:16:52;15.38;;;4.88;;
47659;SDS011;33403;43.608;1.458;2023-09-30T01:19:18;12.75;;;5.60;;
47659;SDS011;33403;43.608;1.458;2023-09-30T01:21:44;10.50;;;4.88;;
47659;SDS011;33403;43.608;1.458;2023-09-30T01:24:14;22.13;;;5.07;;
47659;SDS011;33403;43.608;1.458;2023-09-30T01:26:40;13.63;;;4.38;;
47659;SDS011;33403;43.608;1.458;2023-09-30T01:29:07;11.85;;;4.93;;
47659;SDS011;33403;43.608;1.458;2023-09-30T01:31:36;10.15;;;4.70;;
47659;SDS011;33403;43.608;1.458;2023-09-30T01:34:02;11.43;;;5.03;;
47659;SDS011;33403;43.608;1.458;2023-09-30T01:36:27;12.07;;;4.65;;
47659;SDS011;33403;43.608;1.458;2023-09-30T01:38:53;9.68;;;4.80;;
47659;SDS011;33403;43.608;1.458;2023-09-30T01:41:19;8.85;;;4.88;;
47659;SDS011;33403;43.608;1.458;2023-09-30T01:43:45;11.57;;;5.40;;
47659;SDS011;33403;43.608;1.458;2023-09-30T01:46:11;12.02;;;5.18;;
47659;SDS011;33403;43.608;1.458;2023-09-30T01:48:37;11.60;;;4.80;;
47659;SDS011;33403;43.608;1.458;2023-09-30T01:51:03;11.00;;;4.82;;
47659;SDS011;33403;43.608;1.458;2023-09-30T01:53:29;10.05;;;4.72;;
47659;SDS011;33403;43.608;1.458;2023-09-30T01:55:54;10.73;;;4.80;;
47659;SDS011;33403;43.608;1.458;2023-09-30T01:58:20;8.73;;;4.35;;
47659;SDS011;33403;43.608;1.458;2023-09-30T02:00:46;12.75;;;5.38;;
47659;SDS011;33403;43.608;1.458;2023-09-30T02:03:12;12.05;;;4.60;;
47659;SDS011;33403;43.608;1.458;2023-09-30T02:05:38;12.95;;;4.90;;
47659;SDS011;33403;43.608;1.458;2023-09-30T02:08:04;12.48;;;5.07;;
47659;SDS011;33403;43.608;1.458;2023-09-30T02:10:31;11.15;;;4.72;;
47659;SDS011;33403;43.608;1.458;2023-09-30T02:13:00;11.25;;;4.82;;
47659;SDS011;33403;43.608;1.458;2023-09-30T02:15:26;12.52;;;5.07;;
47659;SDS011;33403;43.608;1.458;2023-09-30T02:17:51;11.88;;;5.15;;
47659;SDS011;33403;43.608;1.458;2023-09-30T02:20:17;12.60;;;4.90;;
47659;SDS011;33403;43.608;1.458;2023-09-30T02:22:47;11.65;;;5.00;;
47659;SDS011;33403;43.608;1.458;2023-09-30T02:25:13;14.20;;;5.55;;
47659;SDS011;33403;43.608;1.458;2023-09-30T02:27:40;11.30;;;4.88;;
47659;SDS011;33403;43.608;1.458;2023-09-30T02:30:07;10.85;;;4.75;;
47659;SDS011;33403;43.608;1.458;2023-09-30T02:32:34;11.00;;;4.93;;
47659;SDS011;33403;43.608;1.458;2023-09-30T02:34:59;11.23;;;4.80;;
47659;SDS011;33403;43.608;1.458;2023-09-30T02:37:25;10.90;;;5.40;;
47659;SDS011;33403;43.608;1.458;2023-09-30T02:39:51;13.73;;;5.25;;
47659;SDS011;33403;43.608;1.458;2023-09-30T02:42:16;9.30;;;4.63;;
47659;SDS011;33403;43.608;1.458;2023-09-30T02:44:42;13.73;;;5.32;;
47659;SDS011;33403;43.608;1.458;2023-09-30T02:47:08;13.20;;;5.30;;
47659;SDS011;33403;43.608;1.458;2023-09-30T02:49:34;10.93;;;4.97;;
47659;SDS011;33403;43.608;1.458;2023-09-30T02:51:59;9.68;;;4.45;;
47659;SDS011;33403;43.608;1.458;2023-09-30T02:54:25;13.88;;;5.30;;
47659;SDS011;33403;43.608;1.458;2023-09-30T02:56:51;13.90;;;5.32;;
47659;SDS011;33403;43.608;1.458;2023-09-30T02:59:17;11.82;;;5.10;;
47659;SDS011;33403;43.608;1.458;2023-09-30T03:01:44;9.05;;;4.38;;
47659;SDS011;33403;43.608;1.458;2023-09-30T03:04:09;10.95;;;4.57;;
47659;SDS011;33403;43.608;1.458;2023-09-30T03:06:37;10.55;;;4.68;;
47659;SDS011;33403;43.608;1.458;2023-09-30T03:09:03;10.90;;;4.70;;
47659;SDS011;33403;43.608;1.458;2023-09-30T03:11:33;9.45;;;4.50;;
47659;SDS011;33403;43.608;1.458;2023-09-30T03:13:59;11.50;;;5.18;;
47659;SDS011;33403;43.608;1.458;2023-09-30T03:16:25;12.20;;;4.88;;
47659;SDS011;33403;43.608;1.458;2023-09-30T03:18:50;9.93;;;4.40;;
47659;SDS011;33403;43.608;1.458;2023-09-30T03:21:16;10.82;;;4.90;;
47659;SDS011;33403;43.608;1.458;2023-09-30T03:23:42;9.65;;;4.80;;
47659;SDS011;33403;43.608;1.458;2023-09-30T03:26:09;10.90;;;4.75;;
47659;SDS011;33403;43.608;1.458;2023-09-30T03:28:38;10.60;;;4.70;;
47659;SDS011;33403;43.608;1.458;2023-09-30T03:31:04;10.45;;;4.70;;
47659;SDS011;33403;43.608;1.458;2023-09-30T03:33:31;8.38;;;4.50;;
47659;SDS011;33403;43.608;1.458;2023-09-30T03:35:57;12.18;;;5.00;;
47659;SDS011;33403;43.608;1.458;2023-09-30T03:38:23;9.07;;;4.80;;
47659;SDS011;33403;43.608;1.458;2023-09-30T03:40:50;12.88;;;5.07;;
47659;SDS011;33403;43.608;1.458;2023-09-30T03:43:18;11.20;;;5.10;;
47659;SDS011;33403;43.608;1.458;2023-09-30T03:45:44;11.65;;;5.05;;
47659;SDS011;33403;43.608;1.458;2023-09-30T03:48:10;10.95;;;4.75;;
47659;SDS011;33403;43.608;1.458;2023-09-30T03:50:36;12.13;;;5.13;;
47659;SDS011;33403;43.608;1.458;2023-09-30T03:53:03;13.18;;;5.10;;
47659;SDS011;33403;43.608;1.458;2023-09-30T03:55:32;8.82;;;4.53;;
47659;SDS011;33403;43.608;1.458;2023-09-30T03:57:58;14.15;;;4.80;;
47659;SDS011;33403;43.608;1.458;2023-09-30T04:00:25;8.85;;;4.60;;
47659;SDS011;33403;43.608;1.458;2023-09-30T04:02:51;12.43;;;5.32;;
47659;SDS011;33403;43.608;1.458;2023-09-30T04:05:23;11.55;;;4.95;;
47659;SDS011;33403;43.608;1.458;2023-09-30T04:07:54;12.18;;;5.00;;
47659;SDS011;33403;43.608;1.458;2023-09-30T04:10:23;12.85;;;5.22;;
47659;SDS011;33403;43.608;1.458;2023-09-30T04:12:50;14.32;;;5.22;;
47659;SDS011;33403;43.608;1.458;2023-09-30T04:15:17;13.95;;;4.97;;
47659;SDS011;33403;43.608;1.458;2023-09-30T04:17:43;14.07;;;4.95;;
47659;SDS011;33403;43.608;1.458;2023-09-30T04:20:09;12.68;;;5.25;;
47659;SDS011;33403;43.608;1.458;2023-09-30T04:22:41;11.07;;;4.90;;
47659;SDS011;33403;43.608;1.458;2023-09-30T04:25:11;13.00;;;5.00;;
47659;SDS011;33403;43.608;1.458;2023-09-30T04:27:37;12.10;;;5.05;;
47659;SDS011;33403;43.608;1.458;2023-09-30T04:30:03;11.45;;;5.00;;
47659;SDS011;33403;43.608;1.458;2023-09-30T04:32:37;12.60;;;5.10;;
47659;SDS011;33403;43.608;1.458;2023-09-30T04:35:06;15.30;;;4.97;;
47659;SDS011;33403;43.608;1.458;2023-09-30T04:37:35;10.60;;;4.95;;
47659;SDS011;33403;43.608;1.458;2023-09-30T04:40:04;8.98;;;4.80;;
47659;SDS011;33403;43.608;1.458;2023-09-30T04:42:40;11.65;;;4.80;;
47659;SDS011;33403;43.608;1.458;2023-09-30T04:45:07;9.77;;;4.72;;
47659;SDS011;33403;43.608;1.458;2023-09-30T04:47:35;9.07;;;4.50;;
47659;SDS011;33403;43.608;1.458;2023-09-30T04:50:01;10.88;;;4.40;;
47659;SDS011;33403;43.608;1.458;2023-09-30T04:52:32;10.30;;;5.07;;
47659;SDS011;33403;43.608;1.458;2023-09-30T04:54:58;10.27;;;4.88;;
47659;SDS011;33403;43.608;1.458;2023-09-30T04:57:25;9.40;;;4.43;;
47659;SDS011;33403;43.608;1.458;2023-09-30T04:59:51;7.30;;;4.30;;
47659;SDS011;33403;43.608;1.458;2023-09-30T05:02:17;11.05;;;4.72;;
47659;SDS011;33403;43.608;1.458;2023-09-30T05:04:42;9.40;;;4.63;;
47659;SDS011;33403;43.608;1.458;2023-09-30T05:07:08;9.43;;;4.40;;
47659;SDS011;33403;43.608;1.458;2023-09-30T05:09:34;11.50;;;4.60;;
47659;SDS011;33403;43.608;1.458;2023-09-30T05:11:59;8.93;;;4.60;;
47659;SDS011;33403;43.608;1.458;2023-09-30T05:14:25;10.27;;;5.03;;
47659;SDS011;33403;43.608;1.458;2023-09-30T05:16:53;10.68;;;5.20;;
47659;SDS011;33403;43.608;1.458;2023-09-30T05:19:19;10.60;;;4.93;;
47659;SDS011;33403;43.608;1.458;2023-09-30T05:21:45;9.85;;;5.00;;
47659;SDS011;33403;43.608;1.458;2023-09-30T05:24:12;11.07;;;5.03;;
47659;SDS011;33403;43.608;1.458;2023-09-30T05:26:38;10.13;;;4.82;;
47659;SDS011;33403;43.608;1.458;2023-09-30T05:29:03;10.15;;;4.35;;
47659;SDS011;33403;43.608;1.458;2023-09-30T05:31:29;8.73;;;4.55;;
47659;SDS011;33403;43.608;1.458;2023-09-30T05:33:56;7.72;;;3.80;;
47659;SDS011;33403;43.608;1.458;2023-09-30T05:36:21;8.57;;;4.22;;
47659;SDS011;33403;43.608;1.458;2023-09-30T05:38:47;7.47;;;4.38;;
47659;SDS011;33403;43.608;1.458;2023-09-30T05:41:16;7.72;;;4.45;;
47659;SDS011;33403;43.608;1.458;2023-09-30T05:43:42;10.18;;;4.63;;
47659;SDS011;33403;43.608;1.458;2023-09-30T05:46:08;9.43;;;4.43;;
47659;SDS011;33403;43.608;1.458;2023-09-30T05:48:34;8.52;;;4.70;;
47659;SDS011;33403;43.608;1.458;2023-09-30T05:51:00;9.88;;;4.43;;
47659;SDS011;33403;43.608;1.458;2023-09-30T05:53:26;11.77;;;4.93;;
47659;SDS011;33403;43.608;1.458;2023-09-30T05:55:53;8.77;;;4.40;;
47659;SDS011;33403;43.608;1.458;2023-09-30T05:58:18;10.05;;;4.60;;
47659;SDS011;33403;43.608;1.458;2023-09-30T06:00:44;12.88;;;4.70;;
47659;SDS011;33403;43.608;1.458;2023-09-30T06:03:10;10.77;;;4.47;;
47659;SDS011;33403;43.608;1.458;2023-09-30T06:05:39;11.02;;;4.57;;
47659;SDS011;33403;43.608;1.458;2023-09-30T06:08:07;8.57;;;4.68;;
47659;SDS011;33403;43.608;1.458;2023-09-30T06:10:35;9.82;;;4.78;;
47659;SDS011;33403;43.608;1.458;2023-09-30T06:13:03;10.13;;;4.60;;
47659;SDS011;33403;43.608;1.458;2023-09-30T06:15:30;9.88;;;4.97;;
47659;SDS011;33403;43.608;1.458;2023-09-30T06:17:56;9.40;;;4.72;;
47659;SDS011;33403;43.608;1.458;2023-09-30T06:20:22;9.05;;;4.47;;
47659;SDS011;33403;43.608;1.458;2023-09-30T06:22:51;9.02;;;4.38;;
47659;SDS011;33403;43.608;1.458;2023-09-30T06:25:18;8.75;;;4.53;;
47659;SDS011;33403;43.608;1.458;2023-09-30T06:27:45;8.77;;;4.40;;
47659;SDS011;33403;43.608;1.458;2023-09-30T06:30:12;8.05;;;4.00;;
47659;SDS011;33403;43.608;1.458;2023-09-30T06:32:40;7.25;;;4.28;;
47659;SDS011;33403;43.608;1.458;2023-09-30T06:35:06;8.80;;;4.32;;
47659;SDS011;33403;43.608;1.458;2023-09-30T06:37:35;6.60;;;4.20;;
47659;SDS011;33403;43.608;1.458;2023-09-30T06:40:07;9.00;;;4.30;;
47659;SDS011;33403;43.608;1.458;2023-09-30T06:42:34;13.27;;;4.40;;
47659;SDS011;33403;43.608;1.458;2023-09-30T06:45:02;10.52;;;4.13;;
47659;SDS011;33403;43.608;1.458;2023-09-30T06:47:30;9.88;;;4.20;;
47659;SDS011;33403;43.608;1.458;2023-09-30T06:50:02;13.90;;;4.78;;
47659;SDS011;33403;43.608;1.458;2023-09-30T06:52:42;7.85;;;4.50;;
47659;SDS011;33403;43.608;1.458;2023-09-30T06:55:10;9.77;;;4.85;;
47659;SDS011;33403;43.608;1.458;2023-09-30T06:57:39;8.85;;;4.75;;
47659;SDS011;33403;43.608;1.458;2023-09-30T07:00:08;8.93;;;4.40;;
47659;SDS011;33403;43.608;1.458;2023-09-30T07:02:36;8.75;;;4.15;;
47659;SDS011;33403;43.608;1.458;2023-09-30T07:05:10;9.32;;;4.75;;
47659;SDS011;33403;43.608;1.458;2023-09-30T07:07:37;7.25;;;4.30;;
47659;SDS011;33403;43.608;1.458;2023-09-30T07:10:05;8.52;;;4.88;;
47659;SDS011;33403;43.608;1.458;2023-09-30T07:12:31;9.18;;;4.85;;
47659;SDS011;33403;43.608;1.458;2023-09-30T07:15:00;10.13;;;4.82;;
47659;SDS011;33403;43.608;1.458;2023-09-30T07:17:30;9.07;;;4.15;;
47659;SDS011;33403;43.608;1.458;2023-09-30T07:19:56;7.63;;;4.32;;
47659;SDS011;33403;43.608;1.458;2023-09-30T07:22:22;8.02;;;4.40;;
47659;SDS011;33403;43.608;1.458;2023-09-30T07:24:48;7.15;;;4.10;;
47659;SDS011;33403;43.608;1.458;2023-09-30T07:27:14;10.63;;;4.53;;
47659;SDS011;33403;43.608;1.458;2023-09-30T07:29:39;11.00;;;4.57;;
47659;SDS011;33403;43.608;1.458;2023-09-30T07:32:06;11.52;;;4.53;;
47659;SDS011;33403;43.608;1.458;2023-09-30T07:34:32;8.90;;;4.65;;
47659;SDS011;33403;43.608;1.458;2023-09-30T07:36:58;8.80;;;4.43;;
47659;SDS011;33403;43.608;1.458;2023-09-30T07:39:23;8.00;;;4.30;;
47659;SDS011;33403;43.608;1.458;2023-09-30T07:41:49;10.30;;;4.45;;
47659;SDS011;33403;43.608;1.458;2023-09-30T07:44:15;11.38;;;4.80;;
47659;SDS011;33403;43.608;1.458;2023-09-30T07:46:40;9.57;;;4.63;;
47659;SDS011;33403;43.608;1.458;2023-09-30T07:49:08;9.10;;;4.45;;
47659;SDS011;33403;43.608;1.458;2023-09-30T07:51:34;9.95;;;4.97;;
47659;SDS011;33403;43.608;1.458;2023-09-30T07:54:00;13.13;;;4.78;;
47659;SDS011;33403;43.608;1.458;2023-09-30T07:56:26;8.45;;;4.18;;
47659;SDS011;33403;43.608;1.458;2023-09-30T07:58:52;8.40;;;4.30;;
47659;SDS011;33403;43.608;1.458;2023-09-30T08:01:18;11.10;;;4.50;;
47659;SDS011;33403;43.608;1.458;2023-09-30T08:03:44;10.07;;;4.80;;
47659;SDS011;33403;43.608;1.458;2023-09-30T08:06:10;8.93;;;4.50;;
47659;SDS011;33403;43.608;1.458;2023-09-30T08:08:36;10.55;;;4.60;;
47659;SDS011;33403;43.608;1.458;2023-09-30T08:11:01;9.10;;;4.47;;
47659;SDS011;33403;43.608;1.458;2023-09-30T08:13:27;10.27;;;5.25;;
47659;SDS011;33403;43.608;1.458;2023-09-30T08:15:54;9.18;;;4.50;;
47659;SDS011;33403;43.608;1.458;2023-09-30T08:18:20;9.43;;;5.15;;
47659;SDS011;33403;43.608;1.458;2023-09-30T08:20:46;11.80;;;5.22;;
47659;SDS011;33403;43.608;1.458;2023-09-30T08:23:12;9.98;;;4.65;;
47659;SDS011;33403;43.608;1.458;2023-09-30T08:25:38;9.35;;;4.38;;
47659;SDS011;33403;43.608;1.458;2023-09-30T08:28:04;8.57;;;4.18;;
47659;SDS011;33403;43.608;1.458;2023-09-30T08:30:30;9.02;;;4.65;;
47659;SDS011;33403;43.608;1.458;2023-09-30T08:32:58;8.25;;;4.57;;
47659;SDS011;33403;43.608;1.458;2023-09-30T08:35:24;9.20;;;4.45;;
47659;SDS011;33403;43.608;1.458;2023-09-30T08:37:50;10.48;;;4.47;;
47659;SDS011;33403;43.608;1.458;2023-09-30T08:40:19;7.82;;;4.38;;
47659;SDS011;33403;43.608;1.458;2023-09-30T08:42:46;10.48;;;4.90;;
47659;SDS011;33403;43.608;1.458;2023-09-30T08:45:17;10.30;;;4.10;;
47659;SDS011;33403;43.608;1.458;2023-09-30T08:47:43;7.95;;;4.07;;
47659;SDS011;33403;43.608;1.458;2023-09-30T08:50:11;8.32;;;4.30;;
47659;SDS011;33403;43.608;1.458;2023-09-30T08:52:38;7.57;;;3.75;;
47659;SDS011;33403;43.608;1.458;2023-09-30T08:55:08;10.73;;;4.35;;
47659;SDS011;33403;43.608;1.458;2023-09-30T08:57:38;8.00;;;3.65;;
47659;SDS011;33403;43.608;1.458;2023-09-30T09:00:05;7.40;;;3.90;;
47659;SDS011;33403;43.608;1.458;2023-09-30T09:02:35;7.63;;;3.78;;
47659;SDS011;33403;43.608;1.458;2023-09-30T09:05:02;10.35;;;3.80;;
47659;SDS011;33403;43.608;1.458;2023-09-30T09:07:28;6.95;;;3.80;;
47659;SDS011;33403;43.608;1.458;2023-09-30T09:12:36;8.43;;;3.75;;
47659;SDS011;33403;43.608;1.458;2023-09-30T09:15:04;9.80;;;3.88;;
47659;SDS011;33403;43.608;1.458;2023-09-30T09:17:41;8.90;;;3.92;;
47659;SDS011;33403;43.608;1.458;2023-09-30T09:20:08;8.55;;;3.72;;
47659;SDS011;33403;43.608;1.458;2023-09-30T09:22:42;9.48;;;3.97;;
47659;SDS011;33403;43.608;1.458;2023-09-30T09:25:09;8.43;;;3.28;;
47659;SDS011;33403;43.608;1.458;2023-09-30T09:27:36;10.95;;;4.20;;
47659;SDS011;33403;43.608;1.458;2023-09-30T09:33:00;8.75;;;3.55;;
47659;SDS011;33403;43.608;1.458;2023-09-30T09:35:31;8.63;;;3.42;;
47659;SDS011;33403;43.608;1.458;2023-09-30T09:40:32;10.23;;;3.47;;
47659;SDS011;33403;43.608;1.458;2023-09-30T09:43:03;9.13;;;3.70;;
47659;SDS011;33403;43.608;1.458;2023-09-30T09:45:30;10.38;;;3.75;;
47659;SDS011;33403;43.608;1.458;2023-09-30T09:48:03;9.07;;;3.75;;
47659;SDS011;33403;43.608;1.458;2023-09-30T09:50:29;7.45;;;3.22;;
47659;SDS011;33403;43.608;1.458;2023-09-30T09:52:58;5.60;;;2.60;;
47659;SDS011;33403;43.608;1.458;2023-09-30T09:55:25;9.10;;;3.28;;
47659;SDS011;33403;43.608;1.458;2023-09-30T09:57:52;5.95;;;2.75;;
47659;SDS011;33403;43.608;1.458;2023-09-30T10:00:23;7.13;;;2.80;;
47659;SDS011;33403;43.608;1.458;2023-09-30T10:02:50;8.02;;;2.92;;
47659;SDS011;33403;43.608;1.458;2023-09-30T10:05:16;6.60;;;2.72;;
47659;SDS011;33403;43.608;1.458;2023-09-30T10:07:44;5.80;;;2.60;;
47659;SDS011;33403;43.608;1.458;2023-09-30T10:10:19;6.82;;;2.60;;
47659;SDS011;33403;43.608;1.458;2023-09-30T10:12:46;4.40;;;2.20;;
47659;SDS011;33403;43.608;1.458;2023-09-30T10:20:37;3.90;;;1.77;;
47659;SDS011;33403;43.608;1.458;2023-09-30T10:23:28;4.53;;;1.90;;
47659;SDS011;33403;43.608;1.458;2023-09-30T10:28:42;5.60;;;2.40;;
47659;SDS011;33403;43.608;1.458;2023-09-30T10:36:30;4.20;;;2.22;;
47659;SDS011;33403;43.608;1.458;2023-09-30T10:38:57;5.10;;;1.90;;
47659;SDS011;33403;43.608;1.458;2023-09-30T10:49:42;5.15;;;2.30;;
47659;SDS011;33403;43.608;1.458;2023-09-30T10:52:08;6.38;;;2.50;;
47659;SDS011;33403;43.608;1.458;2023-09-30T10:54:35;4.32;;;2.50;;
47659;SDS011;33403;43.608;1.458;2023-09-30T10:57:00;4.57;;;2.25;;
47659;SDS011;33403;43.608;1.458;2023-09-30T10:59:28;5.43;;;2.30;;
47659;SDS011;33403;43.608;1.458;2023-09-30T11:02:00;5.72;;;2.35;;
47659;SDS011;33403;43.608;1.458;2023-09-30T11:04:26;2.90;;;1.88;;
47659;SDS011;33403;43.608;1.458;2023-09-30T11:06:54;5.13;;;2.05;;
47659;SDS011;33403;43.608;1.458;2023-09-30T11:09:21;4.05;;;1.80;;
47659;SDS011;33403;43.608;1.458;2023-09-30T11:11:51;3.25;;;2.00;;
47659;SDS011;33403;43.608;1.458;2023-09-30T11:14:25;3.22;;;1.95;;
47659;SDS011;33403;43.608;1.458;2023-09-30T11:16:56;3.60;;;2.20;;
47659;SDS011;33403;43.608;1.458;2023-09-30T11:19:27;3.67;;;2.08;;
47659;SDS011;33403;43.608;1.458;2023-09-30T11:22:10;3.63;;;1.70;;
47659;SDS011;33403;43.608;1.458;2023-09-30T11:24:36;5.03;;;1.88;;
47659;SDS011;33403;43.608;1.458;2023-09-30T11:27:02;3.55;;;2.17;;
47659;SDS011;33403;43.608;1.458;2023-09-30T11:29:29;5.15;;;2.40;;
47659;SDS011;33403;43.608;1.458;2023-09-30T11:31:54;3.00;;;1.92;;
47659;SDS011;33403;43.608;1.458;2023-09-30T11:34:30;4.43;;;2.00;;
47659;SDS011;33403;43.608;1.458;2023-09-30T11:36:57;3.63;;;1.83;;
47659;SDS011;33403;43.608;1.458;2023-09-30T11:39:25;4.63;;;2.15;;
47659;SDS011;33403;43.608;1.458;2023-09-30T11:41:52;4.15;;;2.33;;
47659;SDS011;33403;43.608;1.458;2023-09-30T11:44:20;4.03;;;1.80;;
47659;SDS011;33403;43.608;1.458;2023-09-30T11:52:03;4.38;;;2.20;;
47659;SDS011;33403;43.608;1.458;2023-09-30T11:54:39;6.90;;;2.25;;
47659;SDS011;33403;43.608;1.458;2023-09-30T11:59:42;5.30;;;2.47;;
47659;SDS011;33403;43.608;1.458;2023-09-30T12:02:09;4.78;;;2.22;;
47659;SDS011;33403;43.608;1.458;2023-09-30T12:04:35;5.00;;;2.22;;
47659;SDS011;33403;43.608;1.458;2023-09-30T12:07:01;3.83;;;1.98;;
47659;SDS011;33403;43.608;1.458;2023-09-30T12:09:27;4.75;;;2.10;;
47659;SDS011;33403;43.608;1.458;2023-09-30T12:11:54;5.43;;;2.28;;
47659;SDS011;33403;43.608;1.458;2023-09-30T12:14:22;4.65;;;2.10;;
47659;SDS011;33403;43.608;1.458;2023-09-30T12:16:48;5.07;;;2.25;;
47659;SDS011;33403;43.608;1.458;2023-09-30T12:19:16;4.22;;;2.00;;
47659;SDS011;33403;43.608;1.458;2023-09-30T12:21:43;3.05;;;1.80;;
47659;SDS011;33403;43.608;1.458;2023-09-30T12:24:11;3.83;;;2.10;;
47659;SDS011;33403;43.608;1.458;2023-09-30T12:26:41;3.65;;;2.20;;
47659;SDS011;33403;43.608;1.458;2023-09-30T12:29:07;4.03;;;2.10;;
47659;SDS011;33403;43.608;1.458;2023-09-30T12:31:34;4.60;;;2.30;;
47659;SDS011;33403;43.608;1.458;2023-09-30T12:34:00;3.90;;;2.03;;
47659;SDS011;33403;43.608;1.458;2023-09-30T12:36:27;3.40;;;1.77;;
47659;SDS011;33403;43.608;1.458;2023-09-30T12:38:53;3.33;;;1.98;;
47659;SDS011;33403;43.608;1.458;2023-09-30T12:41:18;2.40;;;1.50;;
47659;SDS011;33403;43.608;1.458;2023-09-30T12:43:46;16.77;;;10.02;;
47659;SDS011;33403;43.608;1.458;2023-09-30T12:46:12;9.25;;;5.60;;
47659;SDS011;33403;43.608;1.458;2023-09-30T12:48:38;4.35;;;2.08;;
47659;SDS011;33403;43.608;1.458;2023-09-30T12:51:07;6.60;;;4.07;;
47659;SDS011;33403;43.608;1.458;2023-09-30T12:53:35;8.15;;;4.18;;
47659;SDS011;33403;43.608;1.458;2023-09-30T12:56:00;6.20;;;2.17;;
47659;SDS011;33403;43.608;1.458;2023-09-30T12:58:26;3.50;;;2.10;;
47659;SDS011;33403;43.608;1.458;2023-09-30T13:00:55;4.28;;;1.98;;
47659;SDS011;33403;43.608;1.458;2023-09-30T13:03:21;3.38;;;1.98;;
47659;SDS011;33403;43.608;1.458;2023-09-30T13:05:48;3.60;;;1.95;;
47659;SDS011;33403;43.608;1.458;2023-09-30T13:08:14;3.35;;;1.88;;
47659;SDS011;33403;43.608;1.458;2023-09-30T13:10:40;3.38;;;1.80;;
47659;SDS011;33403;43.608;1.458;2023-09-30T13:13:05;2.38;;;1.70;;
47659;SDS011;33403;43.608;1.458;2023-09-30T13:15:32;4.65;;;1.98;;
47659;SDS011;33403;43.608;1.458;2023-09-30T13:17:58;5.35;;;1.80;;
47659;SDS011;33403;43.608;1.458;2023-09-30T13:20:24;2.72;;;1.60;;
47659;SDS011;33403;43.608;1.458;2023-09-30T13:22:50;3.00;;;1.70;;
47659;SDS011;33403;43.608;1.458;2023-09-30T13:25:16;2.88;;;1.58;;
47659;SDS011;33403;43.608;1.458;2023-09-30T13:27:41;2.97;;;1.60;;
47659;SDS011;33403;43.608;1.458;2023-09-30T13:30:08;2.95;;;1.60;;
47659;SDS011;33403;43.608;1.458;2023-09-30T13:32:34;4.20;;;1.80;;
47659;SDS011;33403;43.608;1.458;2023-09-30T13:35:03;3.30;;;1.55;;
47659;SDS011;33403;43.608;1.458;2023-09-30T13:37:30;2.95;;;1.60;;
47659;SDS011;33403;43.608;1.458;2023-09-30T13:39:59;2.67;;;1.50;;
47659;SDS011;33403;43.608;1.458;2023-09-30T13:42:34;2.35;;;1.73;;
47659;SDS011;33403;43.608;1.458;2023-09-30T13:45:00;2.83;;;1.83;;
47659;SDS011;33403;43.608;1.458;2023-09-30T13:47:27;3.22;;;1.90;;
47659;SDS011;33403;43.608;1.458;2023-09-30T13:49:52;3.50;;;1.70;;
47659;SDS011;33403;43.608;1.458;2023-09-30T13:52:18;4.50;;;1.75;;
47659;SDS011;33403;43.608;1.458;2023-09-30T13:54:44;4.22;;;1.88;;
47659;SDS011;33403;43.608;1.458;2023-09-30T13:57:09;3.65;;;1.70;;
47659;SDS011;33403;43.608;1.458;2023-09-30T13:59:35;2.80;;;1.63;;
47659;SDS011;33403;43.608;1.458;2023-09-30T14:02:02;3.22;;;1.70;;
47659;SDS011;33403;43.608;1.458;2023-09-30T14:04:31;3.47;;;2.10;;
47659;SDS011;33403;43.608;1.458;2023-09-30T14:07:02;5.53;;;1.98;;
47659;SDS011;33403;43.608;1.458;2023-09-30T14:09:30;3.03;;;1.67;;
47659;SDS011;33403;43.608;1.458;2023-09-30T14:11:55;2.65;;;1.58;;
47659;SDS011;33403;43.608;1.458;2023-09-30T14:14:23;2.38;;;1.60;;
47659;SDS011;33403;43.608;1.458;2023-09-30T14:16:49;2.05;;;1.30;;
47659;SDS011;33403;43.608;1.458;2023-09-30T14:19:15;2.47;;;1.52;;
47659;SDS011;33403;43.608;1.458;2023-09-30T14:21:41;3.53;;;1.70;;
47659;SDS011;33403;43.608;1.458;2023-09-30T14:24:06;2.10;;;1.38;;
47659;SDS011;33403;43.608;1.458;2023-09-30T14:26:32;3.60;;;1.60;;
47659;SDS011;33403;43.608;1.458;2023-09-30T14:28:58;2.55;;;1.50;;
47659;SDS011;33403;43.608;1.458;2023-09-30T14:31:24;3.35;;;1.50;;
47659;SDS011;33403;43.608;1.458;2023-09-30T14:33:51;2.15;;;1.30;;
47659;SDS011;33403;43.608;1.458;2023-09-30T14:36:17;2.53;;;1.67;;
47659;SDS011;33403;43.608;1.458;2023-09-30T14:38:43;3.78;;;1.70;;
47659;SDS011;33403;43.608;1.458;2023-09-30T14:41:10;3.50;;;1.50;;
47659;SDS011;33403;43.608;1.458;2023-09-30T14:43:37;3.42;;;1.70;;
47659;SDS011;33403;43.608;1.458;2023-09-30T14:46:04;3.08;;;1.75;;
47659;SDS011;33403;43.608;1.458;2023-09-30T14:48:30;3.35;;;1.80;;
47659;SDS011;33403;43.608;1.458;2023-09-30T14:50:56;2.88;;;1.55;;
47659;SDS011;33403;43.608;1.458;2023-09-30T14:53:23;2.97;;;1.73;;
47659;SDS011;33403;43.608;1.458;2023-09-30T14:55:49;3.85;;;1.70;;
47659;SDS011;33403;43.608;1.458;2023-09-30T14:58:15;2.67;;;1.67;;
47659;SDS011;33403;43.608;1.458;2023-09-30T15:00:41;3.65;;;1.40;;
47659;SDS011;33403;43.608;1.458;2023-09-30T15:03:07;3.15;;;1.35;;
47659;SDS011;33403;43.608;1.458;2023-09-30T15:05:32;3.20;;;1.55;;
47659;SDS011;33403;43.608;1.458;2023-09-30T15:07:58;2.25;;;1.35;;
47659;SDS011;33403;43.608;1.458;2023-09-30T15:10:26;2.88;;;1.55;;
47659;SDS011;33403;43.608;1.458;2023-09-30T15:12:53;2.88;;;1.88;;
47659;SDS011;33403;43.608;1.458;2023-09-30T15:15:18;2.88;;;1.60;;
47659;SDS011;33403;43.608;1.458;2023-09-30T15:17:44;2.75;;;1.70;;
47659;SDS011;33403;43.608;1.458;2023-09-30T15:20:10;2.35;;;1.70;;